createdAt,value
2018-11-23T00:02:37.782Z,-3.10
2018-11-23T00:05:06.510Z,-2.80
2018-11-23T00:07:35.345Z,-2.90
2018-11-23T00:10:04.258Z,-2.80
2018-11-23T01:02:37.200Z,-3.10
2018-11-23T01:05:06.376Z,-2.90
2018-11-23T01:07:35.142Z,-3.00
2018-11-23T02:02:37.052Z,-3.20
2018-11-23T02:05:06.169Z,-3.20
2018-11-23T02:07:34.969Z,-3.00
2018-11-23T02:10:03.865Z,-3.20
2018-11-23T03:02:35.533Z,-3.50
2018-11-23T03:05:04.367Z,-3.30
2018-11-23T03:07:33.128Z,-3.20
2018-11-23T03:10:01.831Z,-3.20
2018-11-23T04:02:35.322Z,-3.60
2018-11-23T04:05:04.037Z,-3.30
2018-11-23T04:07:32.738Z,-3.30
2018-11-23T04:10:01.457Z,-3.10
2018-11-23T05:02:37.021Z,-3.60
2018-11-23T05:05:07.301Z,-3.60
2018-11-23T05:07:36.002Z,-3.40
2018-11-23T06:02:35.649Z,-3.80
2018-11-23T06:05:04.722Z,-3.50
2018-11-23T06:07:33.409Z,-3.40
2018-11-23T06:10:02.118Z,-3.30
2018-11-23T07:02:37.428Z,-3.70
2018-11-23T07:05:07.193Z,-3.60
2018-11-23T07:07:36.172Z,-3.40
2018-11-23T08:02:37.137Z,-3.20
2018-11-23T08:05:07.241Z,-3.10
2018-11-23T08:07:36.017Z,-3.00
2018-11-23T09:02:37.541Z,-2.60
2018-11-23T09:05:06.764Z,-2.60
2018-11-23T09:07:35.498Z,-2.50
2018-11-23T09:10:04.201Z,-2.20
2018-11-23T10:02:37.330Z,-2.40
2018-11-23T10:05:06.798Z,-2.60
2018-11-23T10:07:35.689Z,-2.40
2018-11-23T11:02:46.489Z,-2.00
2018-11-23T11:05:20.310Z,-2.00
2018-11-23T11:07:49.119Z,-1.80
2018-11-23T12:02:36.112Z,-2.00
2018-11-23T12:05:05.639Z,-2.00
2018-11-23T12:07:34.340Z,-1.90
2018-11-23T13:02:38.427Z,-2.60
2018-11-23T13:05:07.269Z,-2.60
2018-11-23T13:07:35.995Z,-2.30
2018-11-23T14:02:37.649Z,-3.00
2018-11-23T14:05:08.839Z,-3.00
2018-11-23T14:07:37.583Z,-2.70
2018-11-23T15:02:35.373Z,-3.20
2018-11-23T15:05:04.109Z,-3.20
2018-11-23T15:07:32.845Z,-2.90
2018-11-23T15:10:01.558Z,-2.70
2018-11-23T18:02:36.770Z,-2.80
2018-11-23T18:05:07.588Z,-2.80
2018-11-23T18:07:35.425Z,-2.60
2018-11-23T19:02:35.241Z,-2.80
2018-11-23T19:05:04.030Z,-2.60
2018-11-23T19:07:32.835Z,-2.60
2018-11-23T19:10:01.611Z,-2.70
2018-11-23T20:02:35.970Z,-2.60
2018-11-23T20:05:05.350Z,-2.60
2018-11-23T20:07:34.186Z,-2.30
2018-11-23T21:02:36.256Z,-2.60
2018-11-23T21:05:06.178Z,-2.60
2018-11-23T21:07:35.761Z,-2.50
2018-11-23T22:02:35.336Z,-2.60
2018-11-23T22:05:04.050Z,-2.30
2018-11-23T22:07:32.807Z,-2.50
2018-11-23T22:10:01.541Z,-2.30
2018-11-23T22:12:30.253Z,-2.00
2018-11-23T22:14:59.016Z,-2.00
2018-11-23T22:17:27.758Z,-1.70
2018-11-23T22:19:56.497Z,-1.80
2018-11-23T22:22:25.261Z,-1.70
2018-11-23T22:24:54.033Z,-1.80
2018-11-23T22:27:22.775Z,-1.60
2018-11-23T22:29:51.485Z,-1.30
2018-11-23T22:32:20.262Z,-1.50
2018-11-23T22:34:49.011Z,-1.60
2018-11-23T22:37:17.757Z,-1.60
2018-11-23T22:39:46.894Z,-1.60
2018-11-23T22:42:15.675Z,-1.40
2018-11-23T22:44:44.592Z,-1.20
2018-11-23T22:47:13.357Z,-1.60
2018-11-23T22:49:42.097Z,-1.70
2018-11-23T22:52:10.839Z,-1.60
2018-11-23T22:54:39.618Z,-1.70
2018-11-23T22:57:11.823Z,-1.80
2018-11-23T22:59:37.158Z,-1.70
2018-11-23T23:02:06.870Z,-1.50
2018-11-23T23:04:35.609Z,-1.50
2018-11-23T23:07:04.361Z,-1.70
2018-11-23T23:09:33.126Z,-1.70
